createdAt,value
2023-01-12T00:02:18.427Z,13.90
2023-01-12T00:04:46.655Z,11.67
2023-01-12T00:07:15.986Z,9.40
2023-01-12T00:09:44.172Z,10.60
2023-01-12T00:12:13.173Z,7.50
2023-01-12T00:14:41.393Z,17.27
2023-01-12T00:17:11.978Z,10.77
2023-01-12T00:19:40.630Z,13.03
2023-01-12T00:22:12.585Z,11.40
2023-01-12T00:24:42.345Z,9.37
2023-01-12T00:27:13.312Z,13.63
2023-01-12T00:29:41.706Z,21.13
2023-01-12T00:32:13.770Z,11.33
2023-01-12T00:34:42.187Z,9.30
2023-01-12T00:37:10.644Z,9.93
2023-01-12T00:39:43.031Z,16.93
2023-01-12T00:42:31.726Z,10.60
2023-01-12T00:45:17.440Z,16.43
2023-01-12T00:47:46.949Z,8.57
2023-01-12T00:50:17.845Z,13.50
2023-01-12T00:52:47.502Z,11.60
2023-01-12T00:55:15.850Z,13.00
2023-01-12T00:57:44.042Z,10.73
2023-01-12T01:00:13.227Z,14.03
2023-01-12T01:02:41.428Z,13.13
2023-01-12T01:05:11.137Z,13.33
2023-01-12T01:07:39.364Z,12.40
2023-01-12T01:10:08.571Z,7.43
2023-01-12T01:12:36.847Z,10.53
2023-01-12T01:15:05.596Z,6.83
2023-01-12T01:17:34.006Z,8.90
2023-01-12T01:20:02.381Z,12.07
2023-01-12T01:22:31.901Z,9.57
2023-01-12T01:25:00.059Z,10.53
2023-01-12T01:27:28.230Z,12.70
2023-01-12T01:29:56.389Z,9.13
2023-01-12T01:32:24.699Z,9.33
2023-01-12T01:34:52.915Z,7.40
2023-01-12T01:37:21.786Z,9.43
2023-01-12T01:39:51.282Z,9.90
2023-01-12T01:42:28.715Z,11.90
2023-01-12T01:44:59.218Z,7.27
2023-01-12T01:47:37.526Z,6.40
2023-01-12T01:50:13.277Z,10.93
2023-01-12T01:52:45.767Z,8.13
2023-01-12T01:55:21.256Z,7.63
2023-01-12T01:57:53.614Z,7.53
2023-01-12T02:00:22.230Z,11.80
2023-01-12T02:02:50.802Z,8.93
2023-01-12T02:05:21.654Z,9.37
2023-01-12T02:07:51.769Z,6.73
2023-01-12T02:10:22.282Z,8.30
2023-01-12T02:13:08.924Z,11.77
2023-01-12T02:16:02.468Z,10.70
2023-01-12T02:18:36.802Z,10.03
2023-01-12T02:21:24.558Z,8.87
2023-01-12T02:24:19.241Z,8.40
2023-01-12T02:27:16.142Z,10.53
2023-01-12T02:30:31.542Z,12.90
2023-01-12T02:33:16.108Z,11.70
2023-01-12T02:35:48.693Z,17.87
2023-01-12T02:38:25.632Z,28.33
2023-01-12T02:41:02.482Z,24.73
2023-01-12T02:43:32.454Z,26.87
2023-01-12T02:46:11.317Z,23.37
2023-01-12T02:48:47.683Z,12.00
2023-01-12T02:51:21.872Z,17.53
2023-01-12T02:53:53.619Z,16.70
2023-01-12T02:56:25.260Z,10.33
2023-01-12T02:58:57.692Z,7.60
2023-01-12T03:01:28.103Z,10.87
2023-01-12T03:04:02.350Z,6.23
2023-01-12T03:06:40.962Z,6.23
2023-01-12T03:09:09.588Z,7.40
2023-01-12T03:11:41.622Z,6.00
2023-01-12T03:14:11.955Z,9.13
2023-01-12T03:16:41.476Z,7.70
2023-01-12T03:19:14.881Z,5.70
2023-01-12T03:21:50.520Z,4.77
2023-01-12T03:24:23.123Z,3.33
2023-01-12T03:26:54.648Z,3.47
2023-01-12T03:29:27.323Z,6.33
2023-01-12T03:31:57.059Z,4.23
2023-01-12T03:34:27.780Z,9.00
2023-01-12T03:36:59.890Z,8.50
2023-01-12T03:39:38.628Z,5.37
2023-01-12T03:42:13.023Z,7.60
2023-01-12T03:44:51.499Z,6.20
2023-01-12T03:47:24.652Z,4.77
2023-01-12T03:49:58.486Z,4.63
2023-01-12T03:52:28.281Z,6.40
2023-01-12T03:54:59.408Z,4.00
2023-01-12T03:57:29.228Z,9.07
2023-01-12T03:59:58.560Z,11.80
2023-01-12T04:02:27.603Z,14.13
2023-01-12T04:04:58.854Z,9.53
2023-01-12T04:07:27.109Z,5.83
2023-01-12T04:09:55.259Z,6.43
2023-01-12T04:12:22.719Z,5.33
2023-01-12T04:14:50.872Z,6.37
2023-01-12T04:17:19.173Z,7.03
2023-01-12T04:19:47.328Z,3.77
2023-01-12T04:22:34.916Z,6.43
2023-01-12T04:25:03.554Z,9.23
2023-01-12T04:27:31.901Z,7.87
2023-01-12T04:30:00.052Z,4.93
2023-01-12T04:32:28.194Z,5.67
2023-01-12T04:34:56.334Z,5.33
2023-01-12T04:37:25.873Z,3.10
2023-01-12T04:39:54.125Z,8.80
2023-01-12T04:42:39.947Z,2.53
2023-01-12T04:45:09.185Z,8.50
2023-01-12T04:47:37.373Z,6.90
2023-01-12T04:50:06.573Z,5.57
2023-01-12T04:52:36.628Z,4.30
2023-01-12T04:55:05.946Z,5.13
2023-01-12T04:57:34.205Z,2.80
2023-01-12T05:00:02.352Z,3.70
2023-01-12T05:02:30.491Z,3.30
2023-01-12T05:04:58.616Z,11.87
2023-01-12T05:07:26.810Z,3.23
2023-01-12T05:10:22.626Z,5.00
2023-01-12T05:12:50.784Z,8.40
2023-01-12T05:15:18.949Z,1.47
2023-01-12T05:17:47.120Z,4.80
2023-01-12T05:20:15.847Z,5.57
2023-01-12T05:22:44.347Z,5.20
2023-01-12T05:25:13.910Z,3.80
2023-01-12T05:27:42.058Z,5.40
2023-01-12T05:30:11.366Z,2.57
2023-01-12T05:32:40.379Z,7.23
2023-01-12T05:35:10.045Z,5.50
2023-01-12T05:37:38.199Z,6.30
2023-01-12T05:40:07.568Z,1.90
2023-01-12T05:42:54.771Z,5.40
2023-01-12T05:45:22.942Z,7.03
2023-01-12T05:47:58.163Z,3.97
2023-01-12T05:50:26.340Z,4.60
2023-01-12T05:53:09.205Z,2.37
2023-01-12T05:55:38.056Z,2.20
2023-01-12T05:58:07.639Z,3.20
2023-01-12T06:00:35.929Z,2.23
2023-01-12T06:03:04.193Z,3.33
2023-01-12T06:05:32.497Z,6.60
2023-01-12T06:08:02.735Z,5.57
2023-01-12T06:10:31.175Z,5.73
2023-01-12T06:13:17.051Z,6.13
2023-01-12T06:15:46.631Z,5.77
2023-01-12T06:18:14.800Z,4.63
2023-01-12T06:20:42.947Z,5.30
2023-01-12T06:23:11.518Z,4.93
2023-01-12T06:25:39.696Z,2.70
2023-01-12T06:28:07.836Z,2.53
2023-01-12T06:30:35.979Z,6.23
2023-01-12T06:33:05.474Z,6.57
2023-01-12T06:35:33.646Z,1.77
2023-01-12T06:38:01.968Z,2.23
2023-01-12T06:40:30.139Z,6.73
2023-01-12T06:42:58.297Z,3.80
2023-01-12T06:45:26.474Z,5.40
2023-01-12T06:47:55.808Z,6.43
2023-01-12T06:50:25.401Z,4.67
2023-01-12T06:52:53.568Z,3.00
2023-01-12T06:55:22.017Z,4.43
2023-01-12T06:57:50.518Z,7.43
2023-01-12T07:00:19.476Z,5.10
2023-01-12T07:02:50.540Z,7.77
2023-01-12T07:05:19.140Z,6.00
2023-01-12T07:07:48.703Z,10.03
2023-01-12T07:10:17.643Z,4.40
2023-01-12T07:12:45.810Z,6.73
2023-01-12T07:15:15.471Z,4.27
2023-01-12T07:17:43.885Z,4.90
2023-01-12T07:20:12.575Z,10.47
2023-01-12T07:22:40.735Z,2.83
2023-01-12T07:25:11.244Z,4.57
2023-01-12T07:27:39.479Z,6.53
2023-01-12T07:30:09.059Z,10.03
2023-01-12T07:32:37.233Z,5.40
2023-01-12T07:35:06.208Z,4.27
2023-01-12T07:37:34.397Z,4.40
2023-01-12T07:40:02.663Z,3.47
2023-01-12T07:42:33.453Z,4.60
2023-01-12T07:45:01.947Z,5.03
2023-01-12T07:47:30.088Z,7.70
2023-01-12T07:49:58.251Z,5.57
2023-01-12T07:52:26.445Z,5.33
2023-01-12T07:54:54.601Z,3.93
2023-01-12T07:57:22.746Z,3.20
2023-01-12T07:59:52.381Z,3.23
2023-01-12T08:02:20.653Z,3.67
2023-01-12T08:04:48.872Z,2.00
2023-01-12T08:07:17.058Z,6.77
2023-01-12T08:09:45.331Z,5.10
2023-01-12T08:12:13.617Z,1.67
2023-01-12T08:14:43.077Z,4.33
2023-01-12T08:17:16.934Z,3.07
2023-01-12T08:19:51.232Z,2.83
2023-01-12T08:22:23.869Z,2.70
2023-01-12T08:24:55.629Z,1.37
2023-01-12T08:27:27.573Z,3.63
2023-01-12T08:29:58.637Z,3.90
2023-01-12T08:32:30.088Z,1.77
2023-01-12T08:35:02.150Z,5.00
2023-01-12T08:37:31.970Z,5.17
2023-01-12T08:40:00.227Z,4.83
2023-01-12T08:42:31.581Z,1.87
2023-01-12T08:45:00.018Z,2.20
2023-01-12T08:47:30.651Z,2.40
2023-01-12T08:50:00.373Z,3.20
2023-01-12T08:52:31.684Z,3.17
2023-01-12T08:55:00.021Z,5.23
2023-01-12T08:57:28.343Z,4.47
2023-01-12T08:59:57.502Z,1.40
2023-01-12T09:02:27.111Z,4.70
2023-01-12T09:04:56.869Z,2.70
2023-01-12T09:07:25.075Z,5.90
2023-01-12T09:09:53.253Z,3.20
2023-01-12T09:12:23.589Z,3.80
2023-01-12T09:14:54.002Z,4.90
2023-01-12T09:17:24.093Z,4.43
2023-01-12T09:19:52.320Z,3.17
2023-01-12T09:22:21.809Z,7.90
2023-01-12T09:24:49.984Z,2.20
2023-01-12T09:27:18.121Z,5.03
2023-01-12T09:29:46.491Z,2.70
2023-01-12T09:32:14.863Z,3.17
2023-01-12T09:34:43.847Z,1.77
2023-01-12T09:37:12.031Z,7.27
2023-01-12T09:39:41.569Z,3.33
2023-01-12T09:42:36.404Z,0.93
2023-01-12T09:45:31.986Z,7.70
2023-01-12T09:48:02.932Z,2.23
2023-01-12T09:50:35.832Z,2.00
2023-01-12T09:53:08.249Z,4.53
2023-01-12T09:55:57.771Z,3.40
2023-01-12T09:58:39.124Z,6.17
2023-01-12T10:01:20.440Z,3.10
2023-01-12T10:03:56.619Z,9.07
2023-01-12T10:06:24.833Z,2.10
2023-01-12T10:08:56.908Z,2.40
2023-01-12T10:11:31.825Z,6.00
2023-01-12T10:14:35.920Z,2.40
2023-01-12T10:17:16.075Z,3.00
2023-01-12T10:19:52.111Z,4.20
2023-01-12T10:22:37.979Z,5.60
2023-01-12T10:25:17.527Z,1.80
2023-01-12T10:27:49.752Z,3.87
2023-01-12T10:30:21.839Z,5.40
2023-01-12T10:32:50.052Z,4.00
2023-01-12T10:35:20.900Z,2.70
2023-01-12T10:37:52.212Z,8.07
2023-01-12T10:40:25.910Z,7.23
2023-01-12T10:43:22.392Z,2.93
2023-01-12T10:46:11.564Z,1.07
2023-01-12T10:48:42.768Z,5.40
2023-01-12T10:51:23.795Z,2.20
2023-01-12T10:53:55.813Z,1.87
2023-01-12T10:56:29.696Z,5.40
2023-01-12T10:59:02.808Z,7.13
2023-01-12T11:01:45.729Z,2.00
2023-01-12T11:04:16.019Z,3.27
2023-01-12T11:06:46.875Z,2.83
2023-01-12T11:09:20.016Z,1.27
2023-01-12T11:11:48.239Z,3.23
2023-01-12T11:14:27.190Z,2.33
2023-01-12T11:17:01.261Z,3.07
2023-01-12T11:19:33.852Z,2.77
2023-01-12T11:22:07.611Z,3.33
2023-01-12T11:24:41.402Z,1.00
2023-01-12T11:27:18.372Z,3.03
2023-01-12T11:29:55.728Z,1.83
2023-01-12T11:32:33.037Z,5.50
2023-01-12T11:35:06.261Z,3.07
2023-01-12T11:37:38.740Z,3.90
2023-01-12T11:40:19.039Z,2.13
2023-01-12T11:43:06.870Z,3.33
2023-01-12T11:45:46.264Z,2.57
2023-01-12T11:48:22.529Z,1.30
2023-01-12T11:50:54.056Z,3.67
2023-01-12T11:53:24.366Z,4.53
2023-01-12T11:56:07.765Z,3.50
2023-01-12T11:58:46.870Z,2.73
2023-01-12T12:01:24.120Z,3.60
2023-01-12T12:04:00.362Z,1.20
2023-01-12T12:06:41.766Z,4.47
2023-01-12T12:09:26.038Z,1.00
2023-01-12T12:11:58.189Z,3.07
2023-01-12T12:14:42.682Z,2.97
2023-01-12T12:17:19.445Z,2.37
2023-01-12T12:20:01.755Z,3.37
2023-01-12T12:22:43.951Z,2.43
2023-01-12T12:25:24.964Z,5.03
2023-01-12T12:28:08.344Z,5.53
2023-01-12T12:31:01.048Z,6.47
2023-01-12T12:33:51.754Z,5.43
2023-01-12T12:36:28.931Z,1.50
2023-01-12T12:39:29.300Z,4.87
2023-01-12T12:42:21.314Z,2.27
2023-01-12T12:45:16.580Z,4.83
2023-01-12T12:48:02.570Z,8.87
2023-01-12T12:50:37.461Z,1.47
2023-01-12T12:53:15.963Z,4.93
2023-01-12T12:55:45.050Z,1.53
2023-01-12T12:58:31.832Z,2.33
2023-01-12T13:01:44.858Z,4.23
2023-01-12T13:04:14.491Z,4.13
2023-01-12T13:06:47.919Z,3.17
2023-01-12T13:09:39.700Z,5.67
2023-01-12T13:12:33.160Z,2.40
2023-01-12T13:15:19.615Z,4.87
2023-01-12T13:17:50.004Z,2.10
2023-01-12T13:20:35.949Z,3.33
2023-01-12T13:23:25.752Z,2.30
2023-01-12T13:25:57.899Z,0.80
2023-01-12T13:28:26.148Z,3.10
2023-01-12T13:30:55.603Z,2.50
2023-01-12T13:33:26.841Z,4.90
2023-01-12T13:36:10.981Z,3.70
2023-01-12T13:39:16.192Z,3.30
2023-01-12T13:42:02.587Z,3.13
2023-01-12T13:44:35.780Z,2.97
2023-01-12T13:47:10.011Z,3.03
2023-01-12T13:49:46.875Z,4.33
2023-01-12T13:52:23.379Z,1.70
2023-01-12T13:54:52.986Z,0.87
2023-01-12T13:57:23.658Z,1.17
2023-01-12T14:00:00.770Z,2.10
2023-01-12T14:02:31.285Z,1.13
2023-01-12T14:05:26.121Z,0.70
2023-01-12T14:08:10.613Z,1.60
2023-01-12T14:10:47.880Z,1.10
2023-01-12T14:13:30.659Z,0.70
2023-01-12T14:16:21.106Z,0.83
2023-01-12T14:18:50.822Z,0.70
2023-01-12T14:21:25.877Z,1.37
2023-01-12T14:23:54.735Z,1.23
2023-01-12T14:26:27.151Z,0.60
2023-01-12T14:28:55.407Z,1.80
2023-01-12T14:31:28.117Z,0.90
2023-01-12T14:33:59.130Z,0.80
2023-01-12T14:36:36.792Z,2.03
2023-01-12T14:39:09.955Z,2.07
2023-01-12T14:41:57.072Z,5.27
2023-01-12T14:44:44.450Z,0.80
2023-01-12T14:47:24.288Z,9.10
2023-01-12T14:49:52.450Z,8.10
2023-01-12T14:52:27.168Z,1.60
2023-01-12T14:54:55.445Z,2.90
2023-01-12T14:57:33.965Z,1.07
2023-01-12T15:00:02.637Z,0.60
2023-01-12T15:02:34.415Z,0.80
2023-01-12T15:05:05.571Z,0.60
2023-01-12T15:07:36.811Z,1.17
2023-01-12T15:10:35.180Z,1.60
2023-01-12T15:13:25.130Z,1.90
2023-01-12T15:16:11.870Z,1.13
2023-01-12T15:19:06.368Z,1.73
2023-01-12T15:21:52.794Z,1.87
2023-01-12T15:24:43.550Z,1.27
2023-01-12T15:27:15.422Z,1.57
2023-01-12T15:29:43.638Z,3.27
2023-01-12T15:32:19.090Z,0.80
2023-01-12T15:34:47.512Z,0.60
2023-01-12T15:37:16.904Z,0.67
2023-01-12T15:39:45.408Z,0.70
2023-01-12T15:42:17.168Z,0.87
2023-01-12T15:44:45.978Z,0.97
2023-01-12T15:47:16.491Z,0.90
2023-01-12T15:49:48.805Z,0.60
2023-01-12T15:52:21.341Z,0.80
2023-01-12T15:54:49.739Z,2.93
2023-01-12T15:57:19.573Z,0.60
2023-01-12T15:59:47.785Z,0.60
2023-01-12T16:02:30.784Z,0.50
2023-01-12T16:04:59.248Z,1.03
2023-01-12T16:07:27.470Z,0.77
2023-01-12T16:09:56.001Z,0.50
2023-01-12T16:12:26.126Z,0.60
2023-01-12T16:14:56.549Z,1.10
2023-01-12T16:17:24.784Z,1.47
2023-01-12T16:19:52.942Z,0.50
2023-01-12T16:22:22.976Z,0.60
2023-01-12T16:24:52.388Z,0.50
2023-01-12T16:27:22.713Z,0.40
2023-01-12T16:29:52.264Z,2.53
2023-01-12T16:32:23.877Z,0.50
2023-01-12T16:34:52.150Z,1.13
2023-01-12T16:37:23.193Z,3.03
2023-01-12T16:39:51.602Z,0.53
2023-01-12T16:42:19.831Z,1.43
2023-01-12T16:44:50.235Z,0.50
2023-01-12T16:47:21.528Z,0.50
2023-01-12T16:49:50.691Z,0.63
2023-01-12T16:52:21.862Z,1.43
2023-01-12T16:54:50.430Z,0.60
2023-01-12T16:57:19.435Z,0.63
2023-01-12T16:59:49.579Z,0.93
2023-01-12T17:02:20.761Z,1.10
2023-01-12T17:04:52.030Z,2.30
2023-01-12T17:07:21.036Z,0.50
2023-01-12T17:09:49.844Z,0.50
2023-01-12T17:12:18.650Z,1.00
2023-01-12T17:14:47.422Z,1.20
2023-01-12T17:17:15.740Z,0.50
2023-01-12T17:19:46.331Z,1.60
2023-01-12T17:22:14.836Z,0.60
2023-01-12T17:24:43.183Z,0.50
2023-01-12T17:27:11.732Z,0.87
2023-01-12T17:29:40.342Z,0.40
2023-01-12T17:32:09.183Z,1.47
2023-01-12T17:34:39.035Z,1.00
2023-01-12T17:37:09.050Z,0.90
2023-01-12T17:39:39.857Z,1.13
2023-01-12T17:42:25.993Z,0.40
2023-01-12T17:44:54.168Z,0.50
2023-01-12T17:47:22.435Z,0.50
2023-01-12T17:49:50.718Z,1.73
2023-01-12T17:52:20.271Z,0.63
2023-01-12T17:54:48.504Z,0.60
2023-01-12T17:57:16.706Z,0.40
2023-01-12T17:59:45.004Z,0.40
2023-01-12T18:02:15.175Z,0.50
2023-01-12T18:04:43.491Z,0.73
2023-01-12T18:07:11.685Z,0.40
2023-01-12T18:09:41.972Z,0.53
2023-01-12T18:12:12.205Z,2.13
2023-01-12T18:14:40.397Z,1.93
2023-01-12T18:17:10.953Z,0.50
2023-01-12T18:19:41.492Z,1.17
2023-01-12T18:22:10.990Z,1.60
2023-01-12T18:24:39.212Z,0.50
2023-01-12T18:27:09.254Z,0.80
2023-01-12T18:29:38.047Z,0.60
2023-01-12T18:32:06.793Z,0.60
2023-01-12T18:34:35.936Z,0.50
2023-01-12T18:37:04.296Z,1.23
2023-01-12T18:39:32.498Z,0.60
2023-01-12T18:42:18.833Z,0.70
2023-01-12T18:44:49.129Z,0.50
2023-01-12T18:47:35.231Z,0.60
2023-01-12T18:50:33.366Z,1.23
2023-01-12T18:53:19.018Z,1.27
2023-01-12T18:55:47.818Z,0.50
2023-01-12T18:58:15.995Z,0.40
2023-01-12T19:00:45.542Z,0.50
2023-01-12T19:03:13.825Z,0.60
2023-01-12T19:05:53.360Z,0.50
2023-01-12T19:08:39.658Z,1.30
2023-01-12T19:11:09.588Z,0.60
2023-01-12T19:13:55.877Z,0.50
2023-01-12T19:16:42.913Z,1.10
2023-01-12T19:19:11.164Z,0.80
2023-01-12T19:21:56.919Z,0.43
2023-01-12T19:24:42.780Z,0.73
2023-01-12T19:27:31.122Z,0.40
2023-01-12T19:29:59.348Z,0.53
2023-01-12T19:32:28.871Z,1.03
2023-01-12T19:35:09.838Z,0.47
2023-01-12T19:37:39.204Z,0.70
2023-01-12T19:40:16.250Z,1.40
2023-01-12T19:43:02.064Z,0.70
2023-01-12T19:45:30.289Z,1.03
2023-01-12T19:47:59.781Z,0.63
2023-01-12T19:50:27.977Z,1.27
2023-01-12T19:52:56.775Z,0.80
2023-01-12T19:55:24.968Z,0.60
2023-01-12T19:57:54.603Z,0.57
2023-01-12T20:00:23.020Z,0.50
2023-01-12T20:02:51.355Z,0.80
2023-01-12T20:05:23.372Z,0.40
2023-01-12T20:07:53.250Z,0.97
2023-01-12T20:10:22.129Z,0.63
2023-01-12T20:12:52.349Z,1.00
2023-01-12T20:15:21.578Z,0.50
2023-01-12T20:17:50.511Z,0.50
2023-01-12T20:20:19.786Z,0.60
2023-01-12T20:22:51.461Z,0.80
2023-01-12T20:25:20.909Z,0.60
2023-01-12T20:27:50.072Z,0.50
2023-01-12T20:30:32.037Z,0.60
2023-01-12T20:33:05.496Z,0.50
2023-01-12T20:35:34.969Z,0.70
2023-01-12T20:38:06.851Z,0.50
2023-01-12T20:40:39.142Z,0.50
2023-01-12T20:43:07.785Z,0.70
2023-01-12T20:45:36.105Z,0.97
2023-01-12T20:48:04.532Z,0.87
2023-01-12T20:50:32.741Z,2.40
2023-01-12T20:53:01.108Z,0.70
2023-01-12T20:55:30.645Z,2.73
2023-01-12T20:57:58.803Z,0.80
2023-01-12T21:00:28.819Z,0.87
2023-01-12T21:02:57.437Z,0.60
2023-01-12T21:05:25.648Z,0.60
2023-01-12T21:07:59.991Z,1.20
2023-01-12T21:10:38.200Z,0.70
2023-01-12T21:13:07.378Z,0.80
2023-01-12T21:15:35.690Z,0.77
2023-01-12T21:18:04.019Z,0.50
2023-01-12T21:20:32.635Z,1.07
2023-01-12T21:23:01.087Z,2.13
2023-01-12T21:25:29.302Z,1.13
2023-01-12T21:27:59.167Z,0.80
2023-01-12T21:30:27.319Z,1.03
2023-01-12T21:32:56.659Z,1.13
2023-01-12T21:35:25.353Z,1.53
2023-01-12T21:37:53.503Z,0.60
2023-01-12T21:40:21.819Z,1.00
2023-01-12T21:43:07.536Z,0.53
2023-01-12T21:45:38.187Z,0.60
2023-01-12T21:48:07.088Z,0.60
2023-01-12T21:50:36.290Z,1.10
2023-01-12T21:53:05.645Z,0.60
2023-01-12T21:55:35.006Z,0.97
2023-01-12T21:58:03.322Z,0.50
2023-01-12T22:00:31.823Z,0.60
2023-01-12T22:03:01.328Z,0.70
2023-01-12T22:05:29.671Z,1.33
2023-01-12T22:07:58.500Z,0.73
2023-01-12T22:10:30.515Z,0.70
2023-01-12T22:13:02.797Z,0.70
2023-01-12T22:15:31.049Z,0.60
2023-01-12T22:18:00.924Z,0.60
2023-01-12T22:20:29.436Z,0.60
2023-01-12T22:22:57.689Z,0.70
2023-01-12T22:25:26.350Z,0.60
2023-01-12T22:27:54.812Z,0.80
2023-01-12T22:30:25.073Z,1.33
2023-01-12T22:32:55.266Z,1.40
2023-01-12T22:35:26.443Z,0.80
2023-01-12T22:37:55.770Z,1.60
2023-01-12T22:40:24.110Z,0.70
2023-01-12T22:43:10.058Z,0.73
2023-01-12T22:45:38.521Z,0.70
2023-01-12T22:48:07.223Z,0.70
2023-01-12T22:50:37.444Z,0.70
2023-01-12T22:53:05.675Z,2.20
2023-01-12T22:55:33.997Z,0.97
2023-01-12T22:58:02.153Z,1.33
2023-01-12T23:00:30.436Z,3.50
2023-01-12T23:03:02.084Z,1.87
2023-01-12T23:05:33.369Z,3.30
2023-01-12T23:08:03.892Z,0.70
2023-01-12T23:10:32.774Z,0.80
2023-01-12T23:13:15.709Z,1.53
2023-01-12T23:15:47.423Z,1.00
2023-01-12T23:18:18.057Z,1.00
2023-01-12T23:20:46.666Z,1.00
2023-01-12T23:23:18.083Z,0.90
2023-01-12T23:25:46.997Z,1.10
2023-01-12T23:28:16.114Z,0.77
2023-01-12T23:30:44.946Z,1.50
2023-01-12T23:33:13.286Z,0.80
2023-01-12T23:35:43.204Z,2.43
2023-01-12T23:38:14.941Z,0.77
2023-01-12T23:40:44.689Z,1.47
2023-01-12T23:43:13.438Z,0.80
2023-01-12T23:45:41.848Z,0.70
2023-01-12T23:48:10.151Z,0.97
2023-01-12T23:50:38.409Z,1.13
2023-01-12T23:53:06.913Z,0.73
2023-01-12T23:55:38.024Z,0.80
2023-01-12T23:58:08.248Z,1.23
